createdAt,value
2018-12-29T00:00:26.058Z,4.20
2018-12-29T00:01:26.049Z,4.20
2018-12-29T00:02:26.036Z,4.90
2018-12-29T00:03:26.876Z,4.00
2018-12-29T00:04:26.059Z,3.90
2018-12-29T00:05:26.009Z,3.90
2018-12-29T00:06:26.005Z,4.30
2018-12-29T00:07:25.979Z,4.90
2018-12-29T00:08:26.873Z,4.90
2018-12-29T00:09:25.974Z,4.40
2018-12-29T00:10:25.950Z,4.20
2018-12-29T00:11:25.949Z,5.20
2018-12-29T00:12:26.876Z,5.20
2018-12-29T00:13:25.918Z,4.00
2018-12-29T00:14:25.910Z,5.40
2018-12-29T00:15:25.973Z,5.20
2018-12-29T00:16:25.914Z,4.10
2018-12-29T00:17:25.872Z,5.10
2018-12-29T00:18:25.859Z,4.40
2018-12-29T00:19:25.860Z,4.90
2018-12-29T00:20:25.882Z,5.40
2018-12-29T00:21:25.827Z,5.20
2018-12-29T00:22:25.830Z,5.40
2018-12-29T00:23:25.813Z,4.00
2018-12-29T00:24:25.794Z,5.30
2018-12-29T00:25:25.877Z,5.20
2018-12-29T00:26:26.406Z,3.70
2018-12-29T00:27:26.374Z,5.10
2018-12-29T00:28:26.385Z,5.10
2018-12-29T00:29:25.741Z,4.20
2018-12-29T00:30:25.739Z,4.50
2018-12-29T00:31:26.371Z,4.90
2018-12-29T00:32:25.706Z,4.90
2018-12-29T00:33:25.712Z,5.90
2018-12-29T00:34:25.696Z,4.50
2018-12-29T00:35:25.883Z,4.90
2018-12-29T00:36:25.667Z,5.30
2018-12-29T00:37:25.655Z,3.90
2018-12-29T00:38:25.658Z,4.90
2018-12-29T00:39:26.399Z,3.80
2018-12-29T00:40:25.891Z,5.20
2018-12-29T00:41:25.606Z,4.50
2018-12-29T00:42:25.595Z,5.10
2018-12-29T00:43:25.595Z,4.60
2018-12-29T00:44:25.652Z,4.70
2018-12-29T00:45:25.576Z,4.90
2018-12-29T00:46:25.554Z,5.30
2018-12-29T00:47:26.371Z,4.20
2018-12-29T00:48:26.376Z,4.20
2018-12-29T00:49:26.374Z,4.40
2018-12-29T00:50:25.889Z,4.80
2018-12-29T00:51:25.497Z,4.70
2018-12-29T00:52:25.487Z,4.70
2018-12-29T00:53:26.375Z,4.70
2018-12-29T00:54:26.479Z,5.20
2018-12-29T00:55:25.886Z,4.30
2018-12-29T00:56:25.441Z,4.20
2018-12-29T00:57:25.447Z,4.50
2018-12-29T00:58:25.419Z,4.00
2018-12-29T00:59:25.411Z,5.50
2018-12-29T01:00:25.430Z,6.20
2018-12-29T01:01:25.384Z,4.30
2018-12-29T01:02:25.373Z,4.60
2018-12-29T01:03:25.870Z,5.20
2018-12-29T01:04:25.356Z,4.70
2018-12-29T01:05:25.875Z,5.00
2018-12-29T01:06:25.346Z,5.40
2018-12-29T01:07:25.874Z,4.40
2018-12-29T01:08:25.309Z,6.10
2018-12-29T01:09:25.300Z,6.70
2018-12-29T01:10:25.293Z,4.60
2018-12-29T01:11:25.353Z,5.10
2018-12-29T01:12:25.296Z,4.90
2018-12-29T01:13:25.258Z,5.10
2018-12-29T01:14:25.243Z,5.00
2018-12-29T01:15:25.230Z,4.20
2018-12-29T01:16:25.247Z,5.40
2018-12-29T01:17:25.235Z,5.40
2018-12-29T01:18:25.196Z,4.90
2018-12-29T01:19:25.204Z,4.80
2018-12-29T01:20:25.175Z,4.50
2018-12-29T01:21:25.212Z,5.80
2018-12-29T01:22:25.888Z,5.00
2018-12-29T01:23:25.160Z,3.90
2018-12-29T01:24:25.153Z,5.10
2018-12-29T01:25:25.887Z,4.20
2018-12-29T01:26:25.148Z,6.90
2018-12-29T01:27:25.113Z,5.10
2018-12-29T01:28:25.178Z,5.60
2018-12-29T01:29:25.079Z,4.50
2018-12-29T01:30:25.872Z,5.40
2018-12-29T01:31:25.067Z,5.70
2018-12-29T01:32:25.893Z,4.40
2018-12-29T01:33:25.038Z,5.30
2018-12-29T01:34:25.034Z,4.70
2018-12-29T01:35:25.014Z,5.30
2018-12-29T01:36:25.385Z,5.30
2018-12-29T01:37:25.010Z,5.40
2018-12-29T01:38:25.877Z,4.50
2018-12-29T01:39:25.874Z,5.10
2018-12-29T01:40:24.959Z,5.10
2018-12-29T01:41:24.961Z,4.60
2018-12-29T01:42:24.949Z,5.20
2018-12-29T01:43:24.925Z,4.70
2018-12-29T01:44:25.876Z,4.80
2018-12-29T01:45:25.896Z,4.90
2018-12-29T01:46:24.924Z,5.70
2018-12-29T01:47:24.895Z,4.50
2018-12-29T01:48:24.872Z,4.80
2018-12-29T01:49:25.380Z,5.10
2018-12-29T01:50:24.851Z,5.70
2018-12-29T01:51:24.838Z,4.50
2018-12-29T01:52:24.897Z,4.70
2018-12-29T01:53:24.818Z,5.30
2018-12-29T01:54:24.800Z,4.70
2018-12-29T01:55:24.788Z,4.90
2018-12-29T01:56:24.783Z,4.90
2018-12-29T01:57:24.908Z,5.20
2018-12-29T01:58:24.757Z,4.80
2018-12-29T01:59:24.745Z,5.80
2018-12-29T02:00:24.738Z,4.80
2018-12-29T02:01:25.378Z,5.20
2018-12-29T02:02:24.800Z,4.80
2018-12-29T02:03:24.706Z,5.10
2018-12-29T02:04:24.691Z,5.20
2018-12-29T02:05:24.691Z,4.80
2018-12-29T02:06:24.681Z,5.70
2018-12-29T02:07:24.909Z,4.90
2018-12-29T02:08:24.649Z,4.90
2018-12-29T02:09:24.646Z,4.80
2018-12-29T02:10:25.378Z,5.10
2018-12-29T02:11:24.619Z,4.80
2018-12-29T02:12:24.632Z,5.20
2018-12-29T02:13:25.379Z,4.50
2018-12-29T02:14:24.579Z,4.80
2018-12-29T02:15:24.985Z,5.50
2018-12-29T02:16:24.564Z,4.40
2018-12-29T02:17:24.562Z,4.30
2018-12-29T02:18:25.393Z,5.10
2018-12-29T02:19:25.423Z,5.70
2018-12-29T02:20:24.517Z,5.90
2018-12-29T02:21:24.506Z,5.10
2018-12-29T02:22:24.508Z,4.90
2018-12-29T02:23:25.397Z,4.30
2018-12-29T02:24:24.478Z,4.40
2018-12-29T02:25:25.385Z,5.20
2018-12-29T02:26:24.450Z,4.40
2018-12-29T02:27:24.556Z,6.20
2018-12-29T02:28:24.500Z,5.60
2018-12-29T02:29:24.416Z,5.40
2018-12-29T02:30:25.382Z,4.90
2018-12-29T02:31:24.395Z,5.80
2018-12-29T02:32:24.383Z,5.50
2018-12-29T02:33:24.414Z,5.60
2018-12-29T02:34:24.364Z,5.60
2018-12-29T02:35:24.887Z,5.20
2018-12-29T02:36:24.877Z,4.50
2018-12-29T02:37:24.326Z,4.10
2018-12-29T02:38:24.415Z,4.80
2018-12-29T02:39:24.307Z,5.60
2018-12-29T02:40:24.882Z,5.20
2018-12-29T02:41:24.284Z,5.20
2018-12-29T02:42:24.272Z,4.50
2018-12-29T02:43:24.420Z,5.00
2018-12-29T02:44:24.262Z,6.00
2018-12-29T02:45:32.848Z,5.70
2018-12-29T02:46:24.228Z,5.50
2018-12-29T02:47:24.886Z,5.60
2018-12-29T02:48:24.239Z,5.30
2018-12-29T02:49:24.878Z,5.60
2018-12-29T02:50:24.190Z,5.30
2018-12-29T02:51:24.176Z,4.90
2018-12-29T02:52:24.882Z,5.00
2018-12-29T02:53:24.205Z,6.10
2018-12-29T02:54:24.140Z,5.00
2018-12-29T02:55:24.129Z,4.80
2018-12-29T02:56:24.135Z,6.10
2018-12-29T02:57:24.116Z,5.80
2018-12-29T02:58:24.169Z,5.00
2018-12-29T02:59:24.088Z,4.00
2018-12-29T03:00:24.089Z,5.50
2018-12-29T03:01:24.898Z,5.20
2018-12-29T03:02:24.060Z,5.20
2018-12-29T03:03:24.048Z,5.50
2018-12-29T03:04:24.423Z,4.70
2018-12-29T03:05:24.029Z,5.70
2018-12-29T03:06:24.886Z,5.10
2018-12-29T03:07:23.999Z,5.50
2018-12-29T03:08:23.988Z,5.10
2018-12-29T03:09:23.999Z,4.70
2018-12-29T03:10:23.965Z,5.20
2018-12-29T03:11:23.964Z,6.00
2018-12-29T03:12:23.943Z,5.20
2018-12-29T03:13:23.945Z,3.90
2018-12-29T03:14:23.932Z,6.30
2018-12-29T03:15:24.884Z,4.90
2018-12-29T03:16:24.896Z,5.50
2018-12-29T03:17:23.888Z,5.40
2018-12-29T03:18:23.900Z,5.00
2018-12-29T03:19:23.898Z,6.20
2018-12-29T03:20:23.859Z,6.40
2018-12-29T03:21:24.387Z,5.70
2018-12-29T03:22:23.840Z,6.10
2018-12-29T03:23:23.833Z,5.30
2018-12-29T03:24:23.822Z,5.00
2018-12-29T03:25:23.804Z,5.10
2018-12-29T03:26:23.787Z,5.10
2018-12-29T03:27:24.382Z,5.10
2018-12-29T03:28:23.776Z,4.20
2018-12-29T03:29:23.897Z,5.60
2018-12-29T03:30:23.764Z,5.10
2018-12-29T03:31:23.739Z,4.70
2018-12-29T03:32:24.386Z,5.40
2018-12-29T03:33:24.399Z,4.80
2018-12-29T03:34:23.712Z,5.10
2018-12-29T03:35:24.393Z,4.90
2018-12-29T03:36:23.710Z,5.50
2018-12-29T03:37:23.691Z,4.90
2018-12-29T03:38:23.674Z,5.90
2018-12-29T03:39:23.677Z,4.90
2018-12-29T03:40:23.634Z,5.60
2018-12-29T03:41:24.384Z,6.50
2018-12-29T03:42:24.381Z,5.20
2018-12-29T03:43:23.622Z,5.20
2018-12-29T03:44:23.899Z,6.10
2018-12-29T03:45:23.594Z,4.80
2018-12-29T03:46:24.390Z,7.30
2018-12-29T03:47:24.385Z,5.90
2018-12-29T03:48:23.560Z,4.80
2018-12-29T03:49:23.558Z,5.90
2018-12-29T03:50:23.523Z,5.30
2018-12-29T03:51:23.514Z,5.50
2018-12-29T03:52:23.509Z,5.90
2018-12-29T03:53:24.415Z,5.20
2018-12-29T03:54:23.485Z,5.60
2018-12-29T03:55:23.485Z,6.50
2018-12-29T03:56:23.454Z,5.10
2018-12-29T03:57:23.450Z,5.60
2018-12-29T03:58:23.440Z,5.40
2018-12-29T03:59:23.426Z,6.10
2018-12-29T04:00:23.902Z,5.10
2018-12-29T04:01:24.384Z,5.00
2018-12-29T04:02:23.389Z,5.20
2018-12-29T04:03:23.888Z,6.20
2018-12-29T04:04:23.374Z,4.90
2018-12-29T04:05:23.906Z,5.70
2018-12-29T04:06:23.348Z,5.70
2018-12-29T04:07:23.341Z,5.10
2018-12-29T04:08:23.325Z,5.60
2018-12-29T04:09:23.892Z,5.30
2018-12-29T04:10:23.309Z,6.00
2018-12-29T04:11:23.304Z,5.40
2018-12-29T04:12:23.290Z,5.80
2018-12-29T04:13:23.270Z,5.20
2018-12-29T04:14:23.259Z,5.80
2018-12-29T04:15:23.279Z,5.80
2018-12-29T04:16:23.887Z,6.00
2018-12-29T04:17:23.239Z,5.30
2018-12-29T04:18:23.223Z,5.80
2018-12-29T04:19:23.212Z,5.40
2018-12-29T04:20:23.279Z,5.60
2018-12-29T04:21:23.184Z,5.30
2018-12-29T04:22:23.176Z,5.20
2018-12-29T04:23:23.162Z,6.30
2018-12-29T04:24:23.150Z,5.90
2018-12-29T04:25:23.414Z,7.50
2018-12-29T04:26:23.126Z,6.00
2018-12-29T04:27:23.133Z,5.60
2018-12-29T04:28:23.923Z,5.50
2018-12-29T04:29:23.885Z,5.90
2018-12-29T04:30:23.401Z,6.20
2018-12-29T04:31:23.068Z,5.10
2018-12-29T04:32:23.888Z,4.70
2018-12-29T04:33:23.887Z,5.20
2018-12-29T04:34:23.055Z,6.30
2018-12-29T04:35:23.063Z,6.20
2018-12-29T04:36:23.076Z,5.80
2018-12-29T04:37:23.001Z,5.40
2018-12-29T04:38:22.999Z,5.90
2018-12-29T04:39:23.898Z,5.10
2018-12-29T04:40:23.897Z,6.50
2018-12-29T04:41:23.001Z,5.80
2018-12-29T04:42:22.950Z,6.00
2018-12-29T04:43:23.885Z,4.30
2018-12-29T04:44:22.945Z,5.50
2018-12-29T04:45:22.930Z,4.50
2018-12-29T04:46:23.394Z,4.60
2018-12-29T04:47:22.895Z,6.00
2018-12-29T04:48:22.884Z,5.10
2018-12-29T04:49:23.406Z,5.20
2018-12-29T04:50:22.860Z,5.60
2018-12-29T04:51:22.870Z,4.70
2018-12-29T04:52:22.839Z,5.90
2018-12-29T04:53:22.825Z,5.40
2018-12-29T04:54:22.829Z,5.30
2018-12-29T04:55:22.811Z,5.50
2018-12-29T04:56:22.910Z,5.70
2018-12-29T04:57:23.387Z,5.70
2018-12-29T04:58:22.779Z,5.50
2018-12-29T04:59:22.774Z,5.20
2018-12-29T05:00:22.751Z,4.80
2018-12-29T05:01:27.903Z,4.90
2018-12-29T05:02:23.388Z,6.00
2018-12-29T05:03:22.721Z,4.90
2018-12-29T05:04:22.906Z,5.40
2018-12-29T05:05:23.394Z,5.50
2018-12-29T05:06:23.404Z,4.70
2018-12-29T05:07:22.673Z,5.20
2018-12-29T05:08:22.680Z,5.60
2018-12-29T05:09:22.902Z,4.50
2018-12-29T05:10:22.643Z,5.00
2018-12-29T05:11:22.634Z,4.70
2018-12-29T05:12:22.641Z,5.60
2018-12-29T05:13:22.623Z,4.80
2018-12-29T05:14:22.897Z,4.90
2018-12-29T05:15:22.595Z,5.60
2018-12-29T05:16:23.392Z,4.30
2018-12-29T05:17:22.578Z,4.80
2018-12-29T05:18:22.564Z,4.50
2018-12-29T05:19:22.910Z,4.60
2018-12-29T05:20:22.549Z,4.00
2018-12-29T05:21:22.523Z,5.30
2018-12-29T05:22:23.411Z,5.50
2018-12-29T05:23:23.403Z,4.60
2018-12-29T05:24:22.903Z,5.70
2018-12-29T05:25:22.474Z,4.20
2018-12-29T05:26:22.465Z,5.40
2018-12-29T05:27:22.498Z,4.80
2018-12-29T05:28:22.441Z,5.60
2018-12-29T05:29:22.907Z,5.10
2018-12-29T05:30:22.424Z,5.00
2018-12-29T05:31:23.389Z,5.10
2018-12-29T05:32:23.405Z,4.90
2018-12-29T05:33:22.400Z,5.00
2018-12-29T05:34:22.402Z,5.20
2018-12-29T05:35:22.366Z,4.60
2018-12-29T05:36:22.889Z,5.30
2018-12-29T05:37:22.349Z,4.90
2018-12-29T05:38:22.333Z,5.20
2018-12-29T05:39:22.338Z,4.80
2018-12-29T05:40:22.313Z,4.50
2018-12-29T05:41:22.301Z,4.70
2018-12-29T05:42:22.393Z,5.10
2018-12-29T05:43:22.279Z,4.50
2018-12-29T05:44:22.415Z,4.60
2018-12-29T05:45:22.256Z,4.60
2018-12-29T05:46:22.245Z,4.10
2018-12-29T05:47:22.252Z,4.70
2018-12-29T05:48:22.895Z,5.30
2018-12-29T05:49:22.241Z,4.30
2018-12-29T05:50:22.199Z,4.60
2018-12-29T05:51:22.189Z,4.20
2018-12-29T05:52:22.184Z,4.60
2018-12-29T05:53:22.935Z,5.10
2018-12-29T05:54:22.402Z,4.80
2018-12-29T05:55:22.149Z,4.20
2018-12-29T05:56:22.134Z,5.00
2018-12-29T05:57:22.132Z,4.80
2018-12-29T05:58:22.932Z,4.30
2018-12-29T05:59:22.403Z,3.90
2018-12-29T06:00:22.096Z,4.30
2018-12-29T06:01:22.080Z,4.50
2018-12-29T06:02:22.070Z,3.90
2018-12-29T06:03:22.095Z,5.10
2018-12-29T06:04:22.067Z,4.20
2018-12-29T06:05:22.056Z,4.50
2018-12-29T06:06:22.041Z,4.00
2018-12-29T06:07:22.021Z,4.90
2018-12-29T06:08:22.015Z,4.20
2018-12-29T06:09:22.027Z,4.50
2018-12-29T06:10:21.988Z,3.30
2018-12-29T06:11:21.973Z,4.90
2018-12-29T06:12:21.964Z,4.90
2018-12-29T06:13:22.897Z,4.70
2018-12-29T06:14:21.955Z,5.60
2018-12-29T06:15:21.925Z,3.70
2018-12-29T06:16:27.682Z,4.80
2018-12-29T06:17:21.903Z,4.20
2018-12-29T06:18:21.894Z,5.40
2018-12-29T06:19:21.903Z,4.10
2018-12-29T06:20:21.872Z,5.20
2018-12-29T06:21:22.392Z,4.40
2018-12-29T06:22:21.849Z,4.50
2018-12-29T06:23:21.837Z,4.10
2018-12-29T06:24:21.851Z,4.10
2018-12-29T06:25:21.817Z,4.40
2018-12-29T06:26:21.839Z,6.00
2018-12-29T06:27:21.808Z,4.60
2018-12-29T06:28:22.403Z,4.50
2018-12-29T06:29:21.792Z,4.60
2018-12-29T06:30:21.759Z,4.20
2018-12-29T06:31:21.746Z,4.70
2018-12-29T06:32:21.741Z,4.20
2018-12-29T06:33:22.392Z,3.90
2018-12-29T06:34:21.752Z,4.20
2018-12-29T06:35:21.712Z,5.60
2018-12-29T06:36:21.695Z,4.70
2018-12-29T06:37:21.684Z,4.10
2018-12-29T06:38:22.396Z,4.30
2018-12-29T06:39:21.664Z,4.30
2018-12-29T06:40:22.455Z,4.10
2018-12-29T06:41:21.639Z,3.80
2018-12-29T06:42:21.628Z,4.60
2018-12-29T06:43:21.622Z,5.60
2018-12-29T06:44:22.398Z,5.00
2018-12-29T06:45:21.908Z,5.50
2018-12-29T06:46:21.584Z,5.40
2018-12-29T06:47:22.389Z,5.40
2018-12-29T06:48:21.563Z,4.00
2018-12-29T06:49:21.551Z,4.60
2018-12-29T06:50:21.911Z,4.50
2018-12-29T06:51:21.536Z,5.10
2018-12-29T06:52:21.518Z,3.60
2018-12-29T06:53:21.508Z,3.80
2018-12-29T06:54:21.499Z,3.90
2018-12-29T06:55:21.501Z,5.10
2018-12-29T06:56:21.483Z,4.50
2018-12-29T06:57:22.392Z,4.90
2018-12-29T06:58:21.452Z,5.00
2018-12-29T06:59:21.439Z,4.40
2018-12-29T07:00:21.458Z,4.30
2018-12-29T07:01:21.421Z,4.20
2018-12-29T07:02:21.411Z,4.50
2018-12-29T07:03:21.394Z,4.30
2018-12-29T07:04:21.385Z,4.10
2018-12-29T07:05:21.388Z,4.80
2018-12-29T07:06:21.904Z,4.50
2018-12-29T07:07:21.903Z,3.90
2018-12-29T07:08:21.361Z,4.30
2018-12-29T07:09:21.335Z,4.20
2018-12-29T07:10:21.335Z,4.60
2018-12-29T07:11:21.307Z,3.50
2018-12-29T07:12:21.896Z,3.50
2018-12-29T07:13:21.282Z,3.90
2018-12-29T07:14:21.277Z,3.50
2018-12-29T07:15:21.414Z,4.00
2018-12-29T07:16:21.251Z,4.40
2018-12-29T07:17:21.894Z,4.40
2018-12-29T07:18:21.896Z,4.00
2018-12-29T07:19:21.904Z,4.90
2018-12-29T07:20:21.252Z,4.80
2018-12-29T07:21:21.194Z,3.40
2018-12-29T07:22:21.895Z,3.70
2018-12-29T07:23:21.176Z,4.10
2018-12-29T07:24:21.168Z,4.20
2018-12-29T07:25:21.192Z,3.30
2018-12-29T07:26:21.204Z,4.00
2018-12-29T07:27:21.132Z,4.10
2018-12-29T07:28:21.128Z,4.20
2018-12-29T07:29:21.901Z,3.50
2018-12-29T07:30:21.419Z,4.30
2018-12-29T07:31:21.116Z,4.20
2018-12-29T07:32:21.893Z,5.30
2018-12-29T07:33:21.066Z,3.90
2018-12-29T07:34:21.053Z,4.70
2018-12-29T07:35:21.412Z,3.50
2018-12-29T07:36:21.113Z,4.90
2018-12-29T07:37:21.020Z,3.90
2018-12-29T07:38:21.008Z,4.00
2018-12-29T07:39:21.001Z,4.50
2018-12-29T07:40:21.411Z,4.30
2018-12-29T07:41:21.928Z,3.50
2018-12-29T07:42:21.034Z,3.70
2018-12-29T07:43:20.956Z,4.20
2018-12-29T07:44:20.942Z,4.80
2018-12-29T07:45:20.949Z,4.10
2018-12-29T07:46:21.908Z,3.90
2018-12-29T07:47:21.898Z,4.00
2018-12-29T07:48:21.897Z,4.60
2018-12-29T07:49:20.890Z,3.80
2018-12-29T07:50:20.930Z,3.90
2018-12-29T07:51:20.872Z,3.30
2018-12-29T07:52:21.395Z,3.60
2018-12-29T07:53:20.849Z,4.50
2018-12-29T07:54:20.835Z,4.20
2018-12-29T07:55:20.845Z,4.80
2018-12-29T07:56:20.829Z,4.10
2018-12-29T07:57:20.799Z,4.30
2018-12-29T07:58:21.396Z,3.90
2018-12-29T07:59:20.775Z,3.30
2018-12-29T08:00:20.909Z,3.70
2018-12-29T08:01:20.780Z,3.40
2018-12-29T08:02:20.746Z,4.20
2018-12-29T08:03:20.737Z,5.40
2018-12-29T08:04:20.733Z,4.20
2018-12-29T08:05:20.737Z,4.20
2018-12-29T08:06:20.748Z,4.10
2018-12-29T08:07:20.694Z,4.00
2018-12-29T08:08:20.680Z,4.60
2018-12-29T08:09:21.399Z,4.30
2018-12-29T08:10:20.678Z,4.20
2018-12-29T08:11:21.397Z,3.70
2018-12-29T08:12:20.637Z,3.80
2018-12-29T08:13:20.624Z,4.00
2018-12-29T08:14:20.615Z,3.80
2018-12-29T08:15:20.920Z,4.40
2018-12-29T08:16:20.605Z,3.40
2018-12-29T08:17:20.581Z,3.90
2018-12-29T08:18:20.571Z,3.80
2018-12-29T08:19:20.560Z,3.90
2018-12-29T08:20:20.567Z,4.40
2018-12-29T08:21:21.396Z,4.00
2018-12-29T08:22:21.396Z,3.50
2018-12-29T08:23:20.517Z,4.10
2018-12-29T08:24:21.400Z,4.60
2018-12-29T08:25:20.513Z,4.30
2018-12-29T08:26:21.398Z,3.90
2018-12-29T08:27:20.536Z,3.00
2018-12-29T08:28:20.460Z,3.80
2018-12-29T08:29:21.397Z,4.00
2018-12-29T08:30:20.452Z,4.10
2018-12-29T08:31:20.427Z,3.90
2018-12-29T08:32:21.400Z,4.30
2018-12-29T08:33:20.402Z,4.00
2018-12-29T08:34:20.393Z,4.20
2018-12-29T08:35:20.396Z,3.70
2018-12-29T08:36:20.370Z,4.30
2018-12-29T08:37:20.361Z,4.60
2018-12-29T08:38:20.906Z,3.50
2018-12-29T08:39:20.341Z,3.90
2018-12-29T08:40:20.362Z,3.40
2018-12-29T08:41:20.312Z,4.30
2018-12-29T08:42:20.305Z,3.80
2018-12-29T08:43:20.299Z,3.70
2018-12-29T08:44:20.288Z,3.30
2018-12-29T08:45:20.275Z,4.30
2018-12-29T08:46:20.419Z,3.70
2018-12-29T08:47:20.248Z,4.70
2018-12-29T08:48:20.239Z,3.80
2018-12-29T08:49:20.899Z,4.40
2018-12-29T08:50:20.229Z,3.30
2018-12-29T08:51:20.227Z,3.80
2018-12-29T08:52:20.195Z,3.80
2018-12-29T08:53:20.899Z,3.80
2018-12-29T08:54:20.173Z,4.20
2018-12-29T08:55:20.162Z,4.90
2018-12-29T08:56:20.412Z,4.20
2018-12-29T08:57:20.139Z,3.90
2018-12-29T08:58:20.135Z,3.10
2018-12-29T08:59:20.117Z,4.40
2018-12-29T09:00:20.111Z,4.20
2018-12-29T09:01:20.112Z,3.30
2018-12-29T09:02:20.091Z,4.50
2018-12-29T09:03:20.074Z,4.70
2018-12-29T09:04:20.064Z,4.30
2018-12-29T09:05:20.899Z,4.50
2018-12-29T09:06:20.069Z,4.00
2018-12-29T09:07:20.037Z,4.20
2018-12-29T09:08:20.050Z,3.10
2018-12-29T09:09:20.008Z,3.20
2018-12-29T09:10:20.000Z,3.50
2018-12-29T09:11:20.066Z,3.40
2018-12-29T09:12:20.923Z,3.30
2018-12-29T09:13:20.905Z,3.30
2018-12-29T09:14:19.949Z,3.50
2018-12-29T09:15:19.948Z,4.00
2018-12-29T09:16:19.991Z,4.00
2018-12-29T09:17:19.928Z,3.90
2018-12-29T09:18:19.913Z,4.10
2018-12-29T09:19:26.986Z,3.70
2018-12-29T09:20:19.888Z,4.30
2018-12-29T09:21:19.918Z,5.00
2018-12-29T09:22:20.404Z,4.40
2018-12-29T09:23:19.859Z,4.10
2018-12-29T09:24:19.851Z,4.40
2018-12-29T09:25:20.409Z,4.10
2018-12-29T09:26:19.842Z,3.50
2018-12-29T09:27:19.812Z,3.30
2018-12-29T09:28:20.406Z,4.70
2018-12-29T09:29:20.410Z,3.30
2018-12-29T09:30:19.783Z,4.20
2018-12-29T09:31:19.786Z,3.60
2018-12-29T09:32:19.758Z,3.80
2018-12-29T09:33:20.405Z,3.60
2018-12-29T09:34:22.598Z,4.40
2018-12-29T09:35:19.728Z,3.50
2018-12-29T09:36:21.343Z,4.40
2018-12-29T09:37:19.704Z,3.40
2018-12-29T09:38:19.710Z,3.50
2018-12-29T09:39:19.681Z,4.70
2018-12-29T09:40:19.673Z,3.70
2018-12-29T09:41:19.674Z,3.50
2018-12-29T09:42:20.403Z,3.60
2018-12-29T09:43:19.636Z,3.90
2018-12-29T09:44:19.633Z,4.30
2018-12-29T09:45:20.409Z,4.20
2018-12-29T09:46:19.922Z,4.10
2018-12-29T09:47:19.995Z,4.80
2018-12-29T09:48:19.599Z,3.80
2018-12-29T09:49:19.574Z,4.90
2018-12-29T09:50:19.564Z,3.90
2018-12-29T09:51:19.946Z,4.10
2018-12-29T09:52:19.607Z,4.10
2018-12-29T09:53:19.552Z,4.80
2018-12-29T09:54:19.529Z,3.70
2018-12-29T09:55:19.509Z,3.70
2018-12-29T09:56:19.505Z,3.40
2018-12-29T09:57:20.406Z,4.10
2018-12-29T09:58:19.480Z,4.50
2018-12-29T09:59:19.472Z,3.20
2018-12-29T10:00:19.454Z,3.50
2018-12-29T10:01:19.465Z,3.40
2018-12-29T10:02:19.427Z,3.80
2018-12-29T10:03:19.419Z,4.40
2018-12-29T10:04:19.428Z,3.20
2018-12-29T10:05:19.394Z,4.00
2018-12-29T10:06:19.419Z,4.20
2018-12-29T10:07:19.373Z,3.60
2018-12-29T10:08:19.901Z,3.50
2018-12-29T10:09:19.367Z,3.60
2018-12-29T10:10:19.339Z,3.70
2018-12-29T10:11:19.350Z,4.20
2018-12-29T10:12:19.317Z,4.00
2018-12-29T10:13:19.308Z,4.70
2018-12-29T10:14:19.969Z,3.10
2018-12-29T10:15:19.281Z,4.00
2018-12-29T10:16:19.292Z,2.90
2018-12-29T10:17:26.769Z,3.80
2018-12-29T10:18:19.251Z,4.10
2018-12-29T10:19:19.906Z,3.90
2018-12-29T10:20:19.233Z,3.90
2018-12-29T10:21:19.231Z,3.40
2018-12-29T10:22:19.220Z,3.60
2018-12-29T10:23:19.913Z,4.60
2018-12-29T10:24:19.190Z,4.40
2018-12-29T10:25:19.925Z,3.70
2018-12-29T10:26:19.194Z,3.60
2018-12-29T10:27:19.168Z,4.10
2018-12-29T10:28:19.914Z,3.00
2018-12-29T10:29:19.136Z,3.60
2018-12-29T10:30:19.118Z,4.20
2018-12-29T10:31:19.125Z,3.70
2018-12-29T10:32:19.094Z,3.90
2018-12-29T10:33:19.086Z,4.20
2018-12-29T10:34:19.129Z,3.50
2018-12-29T10:35:19.059Z,4.60
2018-12-29T10:36:19.071Z,4.00
2018-12-29T10:37:19.054Z,3.60
2018-12-29T10:38:19.039Z,4.30
2018-12-29T10:39:20.155Z,4.30
2018-12-29T10:40:19.060Z,3.90
2018-12-29T10:41:19.026Z,3.50
2018-12-29T10:42:18.986Z,3.70
2018-12-29T10:43:19.908Z,3.10
2018-12-29T10:44:18.986Z,3.80
2018-12-29T10:45:18.982Z,4.30
2018-12-29T10:46:19.419Z,2.90
2018-12-29T10:47:19.909Z,3.40
2018-12-29T10:48:18.917Z,3.40
2018-12-29T10:49:18.911Z,3.40
2018-12-29T10:50:18.905Z,3.30
2018-12-29T10:51:18.914Z,3.60
2018-12-29T10:52:18.895Z,2.90
2018-12-29T10:53:18.866Z,3.40
2018-12-29T10:54:19.406Z,4.10
2018-12-29T10:55:18.904Z,3.70
2018-12-29T10:56:18.850Z,4.90
2018-12-29T10:57:18.838Z,3.70
2018-12-29T10:58:19.426Z,3.20
2018-12-29T10:59:18.800Z,4.20
2018-12-29T11:00:18.832Z,4.00
2018-12-29T11:01:19.409Z,3.70
2018-12-29T11:02:18.918Z,4.70
2018-12-29T11:03:18.755Z,3.00
2018-12-29T11:04:19.489Z,3.50
2018-12-29T11:05:19.431Z,3.60
2018-12-29T11:06:19.404Z,4.20
2018-12-29T11:07:18.734Z,3.90
2018-12-29T11:08:18.700Z,4.10
2018-12-29T11:09:18.691Z,2.70
2018-12-29T11:10:18.679Z,3.30
2018-12-29T11:11:18.678Z,4.20
2018-12-29T11:12:18.920Z,3.80
2018-12-29T11:13:19.426Z,3.30
2018-12-29T11:14:18.638Z,3.40
2018-12-29T11:15:18.622Z,3.30
2018-12-29T11:16:18.615Z,4.00
2018-12-29T11:17:18.921Z,3.90
2018-12-29T11:18:18.589Z,3.80
2018-12-29T11:19:19.405Z,3.20
2018-12-29T11:20:18.580Z,3.50
2018-12-29T11:21:18.564Z,3.70
2018-12-29T11:22:18.565Z,2.90
2018-12-29T11:23:18.539Z,3.10
2018-12-29T11:24:19.408Z,3.10
2018-12-29T11:25:18.521Z,3.60
2018-12-29T11:26:18.505Z,4.00
2018-12-29T11:27:18.512Z,3.30
2018-12-29T11:28:18.479Z,3.70
2018-12-29T11:29:19.425Z,3.70
2018-12-29T11:30:18.456Z,4.00
2018-12-29T11:31:18.446Z,3.20
2018-12-29T11:32:18.926Z,2.70
2018-12-29T11:33:18.524Z,3.90
2018-12-29T11:34:18.427Z,4.00
2018-12-29T11:35:18.405Z,3.70
2018-12-29T11:36:18.405Z,3.40
2018-12-29T11:37:18.406Z,3.70
2018-12-29T11:38:18.373Z,3.90
2018-12-29T11:39:18.366Z,3.50
2018-12-29T11:40:18.362Z,3.00
2018-12-29T11:41:18.341Z,3.70
2018-12-29T11:42:18.372Z,3.40
2018-12-29T11:43:18.327Z,3.10
2018-12-29T11:44:18.912Z,2.70
2018-12-29T11:45:18.304Z,3.40
2018-12-29T11:46:18.289Z,3.70
2018-12-29T11:47:18.296Z,3.50
2018-12-29T11:48:18.921Z,3.20
2018-12-29T11:49:18.407Z,3.80
2018-12-29T11:50:18.244Z,3.30
2018-12-29T11:51:18.232Z,3.40
2018-12-29T11:52:18.264Z,4.60
2018-12-29T11:53:18.210Z,3.80
2018-12-29T11:54:18.195Z,3.50
2018-12-29T11:55:18.190Z,3.70
2018-12-29T11:56:18.197Z,3.50
2018-12-29T11:57:18.452Z,3.30
2018-12-29T11:58:18.927Z,3.30
2018-12-29T11:59:18.152Z,3.70
2018-12-29T12:00:18.135Z,3.90
2018-12-29T12:01:18.135Z,4.20
2018-12-29T12:02:24.415Z,3.30
2018-12-29T12:03:18.102Z,2.90
2018-12-29T12:04:18.086Z,4.10
2018-12-29T12:05:18.100Z,3.80
2018-12-29T12:06:18.912Z,4.00
2018-12-29T12:07:18.481Z,4.40
2018-12-29T12:08:18.054Z,3.90
2018-12-29T12:09:18.035Z,3.80
2018-12-29T12:10:18.915Z,3.50
2018-12-29T12:11:18.022Z,5.30
2018-12-29T12:12:18.462Z,3.60
2018-12-29T12:13:18.914Z,3.70
2018-12-29T12:14:17.985Z,3.30
2018-12-29T12:15:18.911Z,3.80
2018-12-29T12:16:17.968Z,3.30
2018-12-29T12:17:18.040Z,4.10
2018-12-29T12:18:18.915Z,3.40
2018-12-29T12:19:17.949Z,3.30
2018-12-29T12:20:17.923Z,3.80
2018-12-29T12:21:17.915Z,3.50
2018-12-29T12:22:17.922Z,3.50
2018-12-29T12:23:17.914Z,3.50
2018-12-29T12:24:17.875Z,3.10
2018-12-29T12:25:17.866Z,4.10
2018-12-29T12:26:17.853Z,3.40
2018-12-29T12:27:17.860Z,4.20
2018-12-29T12:28:17.828Z,3.90
2018-12-29T12:29:17.834Z,4.20
2018-12-29T12:30:17.809Z,3.30
2018-12-29T12:31:17.797Z,3.60
2018-12-29T12:32:17.803Z,3.30
2018-12-29T12:33:18.411Z,2.90
2018-12-29T12:34:18.414Z,4.70
2018-12-29T12:35:17.756Z,3.50
2018-12-29T12:36:17.742Z,3.70
2018-12-29T12:37:17.766Z,3.40
2018-12-29T12:38:18.436Z,3.70
2018-12-29T12:39:17.713Z,3.30
2018-12-29T12:40:17.703Z,3.20
2018-12-29T12:41:17.689Z,3.50
2018-12-29T12:42:17.693Z,3.90
2018-12-29T12:43:17.693Z,3.00
2018-12-29T12:44:18.414Z,3.20
2018-12-29T12:45:17.650Z,4.00
2018-12-29T12:46:18.420Z,3.70
2018-12-29T12:47:17.634Z,3.70
2018-12-29T12:48:17.642Z,3.50
2018-12-29T12:49:17.605Z,3.50
2018-12-29T12:50:17.588Z,3.30
2018-12-29T12:51:17.581Z,3.20
2018-12-29T12:52:17.858Z,4.00
2018-12-29T12:53:18.420Z,3.20
2018-12-29T12:54:17.546Z,2.80
2018-12-29T12:55:17.536Z,3.60
2018-12-29T12:56:17.526Z,3.40
2018-12-29T12:57:17.519Z,3.10
2018-12-29T12:58:17.540Z,4.00
2018-12-29T12:59:17.491Z,3.10
2018-12-29T13:00:17.477Z,4.00
2018-12-29T13:01:17.466Z,3.50
2018-12-29T13:02:17.456Z,3.80
2018-12-29T13:03:17.463Z,3.90
2018-12-29T13:04:17.444Z,4.20
2018-12-29T13:05:17.421Z,2.90
2018-12-29T13:06:17.415Z,3.40
2018-12-29T13:07:17.923Z,3.60
2018-12-29T13:08:17.411Z,3.60
2018-12-29T13:09:17.410Z,2.90
2018-12-29T13:10:17.921Z,3.20
2018-12-29T13:11:17.361Z,3.50
2018-12-29T13:12:17.346Z,3.20
2018-12-29T13:13:17.369Z,3.90
2018-12-29T13:14:17.340Z,3.50
2018-12-29T13:15:17.924Z,4.00
2018-12-29T13:16:17.308Z,3.80
2018-12-29T13:17:17.303Z,3.70
2018-12-29T13:18:17.303Z,2.60